createdAt,value
2019-01-25T00:01:20.526Z,38.77
2019-01-25T00:05:19.654Z,23.57
2019-01-25T00:09:18.781Z,37.17
2019-01-25T00:13:17.914Z,36.73
2019-01-25T00:17:17.082Z,36.03
2019-01-25T00:21:16.329Z,38.20
2019-01-25T00:25:15.467Z,43.00
2019-01-25T00:29:14.608Z,34.03
2019-01-25T00:33:13.734Z,36.10
2019-01-25T00:37:12.873Z,36.03
2019-01-25T00:41:12.055Z,37.37
2019-01-25T00:45:12.230Z,34.10
2019-01-25T00:49:11.362Z,33.55
2019-01-25T00:53:10.494Z,35.00
2019-01-25T00:57:10.322Z,41.93
2019-01-25T01:01:10.383Z,31.80
2019-01-25T01:05:10.481Z,28.67
2019-01-25T01:09:10.345Z,45.65
2019-01-25T01:13:10.426Z,39.87
2019-01-25T01:17:10.474Z,44.73
2019-01-25T01:21:10.426Z,39.07
2019-01-25T01:25:10.924Z,29.73
2019-01-25T01:29:10.383Z,53.70
2019-01-25T01:33:10.434Z,27.32
2019-01-25T01:37:10.486Z,44.23
2019-01-25T01:41:10.545Z,38.13
2019-01-25T01:45:10.498Z,43.40
2019-01-25T01:49:10.554Z,23.40
2019-01-25T01:53:10.440Z,44.27
2019-01-25T01:57:10.494Z,35.43
2019-01-25T02:01:10.548Z,21.93
2019-01-25T02:05:10.612Z,38.63
2019-01-25T02:10:14.542Z,45.90
2019-01-25T02:14:13.669Z,24.37
2019-01-25T02:18:12.806Z,40.77
2019-01-25T02:22:11.945Z,39.43
2019-01-25T02:26:11.086Z,32.87
2019-01-25T02:30:16.274Z,34.90
2019-01-25T02:34:15.394Z,37.70
2019-01-25T02:38:14.638Z,41.80
2019-01-25T02:42:14.914Z,39.48
2019-01-25T02:46:14.063Z,34.97
2019-01-25T02:50:15.589Z,36.23
2019-01-25T02:54:14.708Z,29.90
2019-01-25T02:58:13.861Z,26.67
2019-01-25T03:02:12.995Z,39.73
2019-01-25T03:06:12.130Z,35.30
2019-01-25T03:10:13.916Z,36.43
2019-01-25T03:14:13.046Z,33.60
2019-01-25T03:18:12.187Z,26.37
2019-01-25T03:22:11.317Z,36.80
2019-01-25T03:26:10.695Z,37.90
2019-01-25T03:30:19.560Z,43.15
2019-01-25T03:34:18.803Z,38.25
2019-01-25T03:38:17.961Z,33.30
2019-01-25T03:42:17.082Z,34.80
2019-01-25T03:46:16.210Z,30.07
2019-01-25T03:50:20.809Z,33.17
2019-01-25T03:54:19.945Z,26.30
2019-01-25T03:58:19.078Z,33.83
2019-01-25T04:02:18.203Z,41.83
2019-01-25T04:06:17.332Z,38.98
2019-01-25T04:10:21.458Z,41.80
2019-01-25T04:14:20.590Z,34.83
2019-01-25T04:18:19.712Z,29.30
2019-01-25T04:22:18.842Z,44.40
2019-01-25T04:26:17.970Z,32.03
2019-01-25T04:30:19.448Z,36.43
2019-01-25T04:34:18.570Z,39.27
2019-01-25T04:38:17.713Z,38.93
2019-01-25T04:42:16.841Z,29.40
2019-01-25T04:46:15.963Z,34.50
2019-01-25T04:50:19.627Z,27.82
2019-01-25T04:54:18.735Z,31.13
2019-01-25T04:58:17.862Z,31.00
2019-01-25T05:02:17.009Z,32.13
2019-01-25T05:06:17.134Z,29.77
2019-01-25T05:10:16.277Z,35.47
2019-01-25T05:14:15.395Z,35.67
2019-01-25T05:18:14.523Z,34.00
2019-01-25T05:22:13.658Z,32.93
2019-01-25T05:26:12.776Z,33.87
2019-01-25T05:30:13.168Z,35.00
2019-01-25T05:34:12.310Z,28.97
2019-01-25T05:38:11.441Z,25.37
2019-01-25T05:42:10.781Z,33.53
2019-01-25T05:46:11.034Z,24.27
2019-01-25T05:50:12.718Z,31.73
2019-01-25T05:54:11.841Z,24.97
2019-01-25T05:58:11.032Z,33.80
2019-01-25T06:02:10.849Z,28.97
2019-01-25T06:06:10.885Z,33.57
2019-01-25T06:10:12.079Z,33.80
2019-01-25T06:14:13.106Z,35.10
2019-01-25T06:18:12.229Z,30.97
2019-01-25T06:22:11.362Z,30.13
2019-01-25T06:26:10.799Z,29.47
2019-01-25T06:30:14.402Z,34.17
2019-01-25T06:34:13.528Z,30.00
2019-01-25T06:38:12.660Z,32.97
2019-01-25T06:42:11.770Z,31.97
2019-01-25T06:46:10.918Z,34.65
2019-01-25T06:50:12.545Z,32.70
2019-01-25T06:54:11.686Z,33.13
2019-01-25T06:58:15.137Z,34.13
2019-01-25T07:02:14.257Z,35.67
2019-01-25T07:06:13.445Z,30.40
2019-01-25T07:10:18.281Z,36.57
2019-01-25T07:14:17.414Z,30.83
2019-01-25T07:18:16.538Z,30.67
2019-01-25T07:22:15.670Z,30.33
2019-01-25T07:26:14.910Z,32.63
2019-01-25T07:30:15.512Z,37.13
2019-01-25T07:34:15.672Z,26.23
2019-01-25T07:38:14.850Z,38.33
2019-01-25T07:42:13.993Z,31.30
2019-01-25T07:46:13.121Z,26.90
2019-01-25T07:50:12.684Z,26.37
2019-01-25T07:54:11.836Z,32.60
2019-01-25T07:58:11.025Z,27.10
2019-01-25T08:02:10.145Z,30.17
2019-01-25T08:06:09.377Z,30.17
2019-01-25T08:10:17.025Z,31.37
2019-01-25T08:14:16.216Z,30.97
2019-01-25T08:18:15.350Z,20.97
2019-01-25T08:22:14.532Z,25.23
2019-01-25T08:26:15.535Z,38.43
2019-01-25T08:30:22.473Z,26.80
2019-01-25T08:34:21.729Z,30.97
2019-01-25T08:38:20.950Z,27.90
2019-01-25T08:42:20.307Z,29.23
2019-01-25T08:46:19.454Z,28.47
2019-01-25T08:50:26.288Z,29.70
2019-01-25T08:54:25.484Z,22.27
2019-01-25T08:58:24.919Z,24.83
2019-01-25T09:02:24.050Z,23.10
2019-01-25T09:06:23.169Z,22.97
2019-01-25T09:10:24.043Z,28.57
2019-01-25T09:14:23.212Z,18.20
2019-01-25T09:18:22.337Z,28.13
2019-01-25T09:22:21.478Z,31.20
2019-01-25T09:26:21.553Z,30.77
2019-01-25T09:30:22.863Z,28.47
2019-01-25T09:34:22.003Z,34.40
2019-01-25T09:38:21.127Z,32.00
2019-01-25T09:42:20.247Z,27.90
2019-01-25T09:46:19.404Z,31.50
2019-01-25T09:50:22.371Z,30.27
2019-01-25T09:54:21.502Z,31.23
2019-01-25T09:58:20.674Z,22.30
2019-01-25T10:02:19.817Z,31.30
2019-01-25T10:06:19.996Z,25.52
2019-01-25T10:10:19.117Z,25.17
2019-01-25T10:14:18.237Z,24.57
2019-01-25T10:18:17.372Z,25.60
2019-01-25T10:22:16.481Z,30.60
2019-01-25T10:26:15.623Z,26.63
2019-01-25T10:30:20.798Z,25.00
2019-01-25T10:34:19.930Z,27.40
2019-01-25T10:38:19.049Z,28.43
2019-01-25T10:42:18.188Z,26.93
2019-01-25T10:46:17.298Z,25.47
2019-01-25T10:50:16.450Z,30.63
2019-01-25T10:54:15.581Z,25.93
2019-01-25T10:58:14.702Z,24.30
2019-01-25T11:02:13.822Z,28.53
2019-01-25T11:06:12.940Z,26.27
2019-01-25T11:10:12.069Z,31.13
2019-01-25T11:14:11.190Z,31.10
2019-01-25T11:18:10.314Z,21.67
2019-01-25T11:22:09.440Z,23.37
2019-01-25T11:26:08.582Z,17.83
2019-01-25T11:30:11.089Z,21.60
2019-01-25T11:34:10.209Z,24.83
2019-01-25T11:38:09.328Z,24.97
2019-01-25T11:42:08.452Z,27.27
2019-01-25T11:46:07.585Z,24.00
2019-01-25T11:50:15.288Z,24.50
2019-01-25T11:54:15.485Z,27.83
2019-01-25T11:58:14.623Z,25.10
2019-01-25T12:02:20.749Z,25.20
2019-01-25T12:06:14.573Z,28.27
2019-01-25T12:10:19.841Z,20.83
2019-01-25T12:14:18.986Z,25.13
2019-01-25T12:18:18.127Z,24.97
2019-01-25T12:22:17.316Z,26.83
2019-01-25T12:26:16.432Z,26.80
2019-01-25T12:30:18.862Z,25.00
2019-01-25T12:34:17.980Z,23.07
2019-01-25T12:38:17.114Z,19.60
2019-01-25T12:42:16.306Z,19.43
2019-01-25T12:46:15.436Z,26.13
2019-01-25T12:50:35.826Z,27.67
2019-01-25T12:54:34.959Z,22.20
2019-01-25T12:58:34.152Z,25.53
2019-01-25T13:02:33.277Z,26.17
2019-01-25T13:06:32.408Z,24.47
2019-01-25T13:10:31.534Z,20.40
2019-01-25T13:14:30.669Z,19.90
2019-01-25T13:18:29.793Z,18.93
2019-01-25T13:22:28.917Z,17.23
2019-01-25T13:26:28.050Z,16.63
2019-01-25T13:30:30.703Z,17.23
2019-01-25T13:34:29.911Z,19.97
2019-01-25T13:38:29.110Z,20.03
2019-01-25T13:42:28.249Z,12.23
2019-01-25T13:46:27.493Z,18.63
2019-01-25T13:50:28.261Z,17.93
2019-01-25T13:54:28.933Z,19.27
2019-01-25T13:58:28.204Z,16.50
2019-01-25T14:02:27.439Z,21.60
2019-01-25T14:06:26.821Z,19.33
2019-01-25T14:10:27.994Z,15.57
2019-01-25T14:14:27.503Z,15.65
2019-01-25T14:18:26.685Z,18.53
2019-01-25T14:26:51.974Z,17.57
2019-01-25T14:30:51.101Z,16.90
2019-01-25T14:34:50.281Z,20.67
2019-01-25T14:38:49.486Z,17.60
2019-01-25T14:42:48.606Z,10.90
2019-01-25T14:46:47.771Z,14.05
2019-01-25T14:50:47.010Z,13.93
2019-01-25T14:54:46.153Z,14.20
2019-01-25T14:58:45.279Z,18.10
2019-01-25T15:02:44.414Z,17.67
2019-01-25T15:06:43.546Z,19.30
2019-01-25T15:10:43.183Z,18.50
2019-01-25T15:14:43.287Z,13.67
2019-01-25T15:18:43.251Z,18.83
2019-01-25T15:22:43.172Z,19.40
2019-01-25T15:26:43.231Z,17.47
2019-01-25T15:30:43.287Z,13.17
2019-01-25T15:34:43.238Z,12.30
2019-01-25T15:38:43.311Z,18.17
2019-01-25T15:42:43.191Z,18.63
2019-01-25T15:46:43.838Z,16.03
2019-01-25T15:50:43.266Z,13.80
2019-01-25T15:54:43.582Z,16.07
2019-01-25T15:58:43.162Z,15.07
2019-01-25T16:02:44.054Z,11.67
2019-01-25T16:06:43.335Z,16.17
2019-01-25T16:10:43.629Z,13.30
2019-01-25T16:14:43.378Z,15.83
2019-01-25T16:18:43.249Z,14.03
2019-01-25T16:22:43.309Z,10.30
2019-01-25T16:26:44.417Z,8.10
2019-01-25T16:30:43.691Z,9.93
2019-01-25T16:34:43.219Z,13.03
2019-01-25T16:38:43.290Z,12.23
2019-01-25T16:42:43.371Z,7.45
2019-01-25T16:46:43.445Z,10.90
2019-01-25T16:50:43.385Z,9.83
2019-01-25T16:54:43.338Z,11.40
2019-01-25T16:58:43.398Z,16.97
2019-01-25T17:02:43.370Z,12.97
2019-01-25T17:06:43.282Z,7.93
2019-01-25T17:10:43.483Z,8.40
2019-01-25T17:14:43.322Z,12.87
2019-01-25T17:18:43.408Z,16.60
2019-01-25T17:22:43.526Z,14.17
2019-01-25T17:26:43.663Z,14.80
2019-01-25T17:30:43.332Z,15.70
2019-01-25T17:34:43.606Z,14.00
2019-01-25T17:38:43.798Z,13.10
2019-01-25T17:42:43.326Z,8.80
2019-01-25T17:46:43.446Z,9.07
2019-01-25T17:50:43.388Z,8.83
2019-01-25T17:54:43.327Z,11.53
2019-01-25T17:58:43.388Z,17.73
2019-01-25T18:02:43.441Z,18.60
2019-01-25T18:06:43.382Z,18.17
2019-01-25T18:10:43.460Z,21.80
2019-01-25T18:14:49.246Z,18.50
2019-01-25T18:18:44.279Z,15.67
2019-01-25T18:22:43.501Z,18.13
2019-01-25T18:26:43.324Z,15.47
2019-01-25T18:30:52.683Z,18.40
2019-01-25T18:34:51.821Z,12.83
2019-01-25T18:38:50.978Z,17.30
2019-01-25T18:42:50.097Z,17.87
2019-01-25T18:46:49.232Z,19.30
2019-01-25T18:50:48.375Z,15.60
2019-01-25T18:54:47.513Z,20.57
2019-01-25T18:58:47.600Z,19.63
2019-01-25T19:02:46.729Z,13.60
2019-01-25T19:06:45.939Z,15.37
2019-01-25T19:10:46.046Z,13.07
2019-01-25T19:14:45.161Z,19.67
2019-01-25T19:18:44.342Z,18.87
2019-01-25T19:22:43.533Z,23.40
2019-01-25T19:31:26.273Z,22.07
2019-01-25T19:35:25.699Z,22.03
2019-01-25T19:39:25.378Z,21.17
2019-01-25T19:43:26.762Z,27.13
2019-01-25T19:47:26.378Z,12.37
2019-01-25T19:51:25.517Z,22.85
2019-01-25T19:55:27.830Z,21.20
2019-01-25T19:59:26.962Z,17.17
2019-01-25T20:03:26.294Z,17.50
2019-01-25T20:07:26.087Z,11.50
2019-01-25T20:11:25.274Z,14.80
2019-01-25T20:15:25.845Z,16.30
2019-01-25T20:19:24.973Z,16.43
2019-01-25T20:23:24.099Z,17.83
2019-01-25T20:27:23.249Z,13.93
2019-01-25T20:31:22.370Z,17.53
2019-01-25T20:35:36.258Z,13.20
2019-01-25T20:39:35.370Z,19.67
2019-01-25T20:43:34.568Z,11.30
2019-01-25T20:47:33.686Z,17.20
2019-01-25T20:51:32.858Z,15.97
2019-01-25T20:55:31.981Z,15.90
2019-01-25T20:59:31.134Z,18.77
2019-01-25T21:03:30.266Z,18.27
2019-01-25T21:07:29.404Z,16.47
2019-01-25T21:11:28.521Z,16.73
2019-01-25T21:15:35.065Z,18.17
2019-01-25T21:19:29.446Z,12.90
2019-01-25T21:23:28.589Z,15.40
2019-01-25T21:27:27.709Z,17.73
2019-01-25T21:31:26.867Z,12.20
2019-01-25T21:35:25.978Z,13.80
2019-01-25T21:39:25.113Z,16.83
2019-01-25T21:43:24.229Z,11.57
2019-01-25T21:47:23.449Z,16.73
2019-01-25T21:51:22.579Z,14.40
2019-01-25T21:55:21.794Z,13.80
2019-01-25T21:59:21.347Z,15.70
2019-01-25T22:03:20.637Z,13.50
2019-01-25T22:07:19.763Z,12.73
2019-01-25T22:11:19.105Z,14.37
2019-01-25T22:15:19.698Z,13.33
2019-01-25T22:19:18.832Z,12.83
2019-01-25T22:23:17.970Z,12.77
2019-01-25T22:27:17.082Z,7.63
2019-01-25T22:31:16.262Z,15.37
2019-01-25T22:35:15.473Z,12.03
2019-01-25T22:39:14.642Z,13.65
2019-01-25T22:43:13.802Z,14.93
2019-01-25T22:47:20.100Z,14.03
2019-01-25T22:51:13.765Z,16.53
2019-01-25T22:55:15.334Z,14.90
2019-01-25T22:59:14.485Z,14.98
2019-01-25T23:03:13.874Z,13.58
2019-01-25T23:07:14.178Z,14.30
2019-01-25T23:11:13.293Z,13.50
2019-01-25T23:15:12.427Z,13.10
2019-01-25T23:19:11.565Z,15.43
2019-01-25T23:23:10.701Z,10.97
2019-01-25T23:27:09.825Z,10.80
2019-01-25T23:31:08.977Z,12.57
2019-01-25T23:35:08.110Z,13.67
2019-01-25T23:39:07.782Z,8.70
2019-01-25T23:43:07.277Z,13.97
2019-01-25T23:47:06.414Z,12.93
2019-01-25T23:51:05.546Z,7.53
2019-01-25T23:55:06.135Z,11.63
2019-01-25T23:59:05.233Z,10.83
